createdAt,value
2023-03-10T00:00:39.962Z,27.30
2023-03-10T00:03:07.525Z,22.63
2023-03-10T00:05:34.630Z,25.02
2023-03-10T00:08:01.576Z,37.67
2023-03-10T00:10:28.654Z,23.45
2023-03-10T00:12:55.640Z,30.00
2023-03-10T00:15:23.657Z,34.40
2023-03-10T00:17:50.712Z,33.40
2023-03-10T00:20:17.931Z,29.27
2023-03-10T00:22:44.921Z,26.17
2023-03-10T00:25:12.819Z,29.50
2023-03-10T00:27:39.714Z,27.48
2023-03-10T00:30:07.579Z,32.33
2023-03-10T00:32:36.098Z,23.85
2023-03-10T00:35:05.404Z,27.95
2023-03-10T00:37:32.326Z,30.70
2023-03-10T00:39:59.240Z,30.20
2023-03-10T00:42:27.420Z,26.88
2023-03-10T00:44:54.412Z,29.25
2023-03-10T00:47:22.971Z,39.40
2023-03-10T00:49:50.865Z,25.05
2023-03-10T00:52:18.030Z,33.78
2023-03-10T00:54:45.155Z,29.27
2023-03-10T00:57:12.084Z,36.40
2023-03-10T00:59:50.131Z,36.63
2023-03-10T01:02:19.631Z,29.75
2023-03-10T01:04:47.547Z,35.85
2023-03-10T01:07:14.577Z,25.63
2023-03-10T01:09:42.800Z,29.38
2023-03-10T01:12:09.850Z,30.10
2023-03-10T01:14:37.156Z,26.15
2023-03-10T01:17:05.426Z,25.92
2023-03-10T01:19:32.485Z,32.60
2023-03-10T01:22:01.504Z,28.25
2023-03-10T01:24:28.453Z,27.17
2023-03-10T01:26:55.441Z,32.05
2023-03-10T01:29:22.422Z,32.45
2023-03-10T01:31:49.417Z,34.08
2023-03-10T01:34:16.413Z,29.80
2023-03-10T01:36:43.429Z,27.25
2023-03-10T01:39:10.405Z,34.53
2023-03-10T01:41:41.310Z,27.65
2023-03-10T01:44:17.049Z,29.95
2023-03-10T01:46:50.034Z,32.92
2023-03-10T01:49:26.541Z,30.08
2023-03-10T01:52:00.151Z,35.17
2023-03-10T01:54:44.727Z,34.22
2023-03-10T01:57:13.496Z,33.78
2023-03-10T01:59:41.207Z,30.05
2023-03-10T02:02:09.482Z,25.30
2023-03-10T02:04:45.605Z,31.00
2023-03-10T02:07:14.239Z,28.50
2023-03-10T02:09:44.712Z,26.00
2023-03-10T02:12:15.044Z,24.13
2023-03-10T02:14:46.766Z,31.95
2023-03-10T02:17:19.513Z,31.58
2023-03-10T02:20:05.304Z,31.30
2023-03-10T02:22:32.903Z,30.27
2023-03-10T02:25:38.841Z,29.02
2023-03-10T02:28:06.801Z,41.90
2023-03-10T02:30:40.147Z,36.83
2023-03-10T02:33:13.953Z,32.03
2023-03-10T02:35:41.075Z,35.75
2023-03-10T02:38:12.527Z,37.38
2023-03-10T02:40:46.660Z,36.28
2023-03-10T02:43:20.480Z,29.48
2023-03-10T02:45:51.977Z,36.97
2023-03-10T02:48:28.184Z,32.70
2023-03-10T02:50:57.356Z,32.03
2023-03-10T02:53:26.822Z,29.35
2023-03-10T02:55:55.376Z,29.83
2023-03-10T02:58:26.414Z,34.17
2023-03-10T03:00:53.383Z,38.75
2023-03-10T03:03:22.252Z,33.65
2023-03-10T03:05:49.978Z,30.83
2023-03-10T03:08:19.012Z,32.13
2023-03-10T03:10:46.055Z,31.33
2023-03-10T03:13:13.736Z,39.10
2023-03-10T03:15:41.350Z,26.17
2023-03-10T03:18:09.473Z,32.35
2023-03-10T03:20:40.871Z,28.00
2023-03-10T03:23:08.918Z,28.02
2023-03-10T03:25:39.062Z,35.80
2023-03-10T03:28:08.133Z,34.10
2023-03-10T03:30:36.265Z,33.10
2023-03-10T03:33:06.060Z,32.20
2023-03-10T03:35:35.597Z,39.15
2023-03-10T03:38:04.117Z,35.63
2023-03-10T03:40:33.626Z,35.53
2023-03-10T03:43:02.183Z,35.83
2023-03-10T03:45:32.230Z,33.05
2023-03-10T03:48:00.556Z,41.47
2023-03-10T03:50:30.219Z,36.70
2023-03-10T03:53:03.406Z,31.40
2023-03-10T03:55:31.532Z,27.85
2023-03-10T03:57:59.255Z,30.60
2023-03-10T04:00:26.502Z,28.90
2023-03-10T04:03:04.445Z,36.72
2023-03-10T04:05:33.344Z,38.83
2023-03-10T04:08:01.233Z,46.30
2023-03-10T04:10:30.087Z,40.58
2023-03-10T04:12:57.573Z,34.67
2023-03-10T04:15:26.043Z,38.45
2023-03-10T04:17:53.262Z,32.10
2023-03-10T04:20:20.720Z,36.95
2023-03-10T04:22:50.217Z,33.35
2023-03-10T04:25:19.281Z,39.05
2023-03-10T04:27:46.892Z,33.30
2023-03-10T04:30:15.169Z,28.98
2023-03-10T04:32:48.736Z,36.92
2023-03-10T04:35:16.819Z,34.15
2023-03-10T04:37:44.942Z,34.38
2023-03-10T04:40:14.629Z,37.17
2023-03-10T04:42:42.282Z,43.40
2023-03-10T04:45:10.309Z,32.85
2023-03-10T04:47:38.314Z,31.08
2023-03-10T04:50:06.640Z,32.17
2023-03-10T04:52:35.062Z,40.28
2023-03-10T04:55:03.033Z,37.47
2023-03-10T04:57:30.005Z,31.00
2023-03-10T04:59:57.038Z,31.80
2023-03-10T05:02:24.102Z,33.28
2023-03-10T05:04:51.837Z,41.60
2023-03-10T05:07:21.412Z,38.83
2023-03-10T05:09:49.954Z,44.92
2023-03-10T05:12:17.179Z,34.50
2023-03-10T05:14:44.420Z,33.72
2023-03-10T05:17:11.920Z,45.13
2023-03-10T05:19:39.638Z,33.78
2023-03-10T05:22:08.033Z,39.85
2023-03-10T05:24:36.965Z,38.50
2023-03-10T05:27:04.102Z,37.17
2023-03-10T05:29:31.796Z,41.40
2023-03-10T05:32:11.458Z,34.78
2023-03-10T05:34:40.542Z,36.22
2023-03-10T05:37:07.480Z,37.35
2023-03-10T05:39:34.662Z,37.33
2023-03-10T05:42:06.230Z,33.53
2023-03-10T05:44:34.965Z,34.03
2023-03-10T05:47:04.840Z,43.15
2023-03-10T05:49:32.310Z,39.25
2023-03-10T05:51:59.683Z,39.78
2023-03-10T05:54:27.421Z,43.10
2023-03-10T05:56:54.479Z,41.55
2023-03-10T05:59:25.898Z,36.85
2023-03-10T06:01:53.990Z,42.30
2023-03-10T06:04:21.186Z,38.70
2023-03-10T06:06:48.999Z,37.63
2023-03-10T06:09:16.092Z,38.13
2023-03-10T06:11:43.076Z,34.72
2023-03-10T06:14:10.101Z,42.30
2023-03-10T06:16:37.055Z,47.80
2023-03-10T06:19:04.035Z,36.97
2023-03-10T06:21:30.964Z,35.35
2023-03-10T06:23:59.160Z,37.33
2023-03-10T06:26:26.101Z,36.15
2023-03-10T06:28:53.039Z,44.03
2023-03-10T06:31:24.528Z,44.92
2023-03-10T06:33:52.272Z,40.53
2023-03-10T06:36:20.304Z,40.17
2023-03-10T06:38:47.730Z,39.50
2023-03-10T06:41:16.764Z,42.00
2023-03-10T06:43:44.184Z,36.22
2023-03-10T06:46:12.523Z,35.92
2023-03-10T06:48:40.484Z,38.28
2023-03-10T06:51:09.767Z,51.25
2023-03-10T06:53:37.343Z,32.75
2023-03-10T06:56:05.961Z,38.78
2023-03-10T06:58:34.616Z,45.65
2023-03-10T07:01:01.958Z,39.60
2023-03-10T07:03:29.265Z,35.40
2023-03-10T07:05:59.900Z,39.20
2023-03-10T07:08:30.413Z,38.13
2023-03-10T07:10:58.227Z,42.47
2023-03-10T07:13:25.241Z,41.90
2023-03-10T07:15:52.160Z,44.05
2023-03-10T07:18:19.454Z,47.38
2023-03-10T07:20:48.176Z,43.65
2023-03-10T07:23:15.649Z,42.70
2023-03-10T07:25:42.636Z,48.00
2023-03-10T07:28:09.697Z,45.53
2023-03-10T07:30:38.925Z,50.53
2023-03-10T07:33:06.108Z,44.53
2023-03-10T07:35:35.525Z,51.72
2023-03-10T07:38:04.687Z,50.60
2023-03-10T07:40:31.764Z,45.63
2023-03-10T07:42:59.049Z,66.57
2023-03-10T07:45:28.169Z,57.25
2023-03-10T07:47:55.440Z,71.60
2023-03-10T07:50:22.451Z,78.53
2023-03-10T07:52:49.687Z,103.72
2023-03-10T07:55:17.116Z,98.25
2023-03-10T07:57:44.246Z,59.92
2023-03-10T08:00:11.842Z,62.13
2023-03-10T08:02:42.122Z,59.33
2023-03-10T08:05:10.640Z,47.13
2023-03-10T08:07:38.218Z,37.28
2023-03-10T08:10:06.061Z,33.80
2023-03-10T08:12:34.138Z,32.80
2023-03-10T08:15:01.190Z,37.00
2023-03-10T08:17:31.029Z,35.38
2023-03-10T08:19:58.732Z,38.10
2023-03-10T08:22:26.793Z,34.08
2023-03-10T08:24:54.398Z,41.95
2023-03-10T08:27:21.770Z,36.40
2023-03-10T08:29:48.720Z,29.48
2023-03-10T08:32:15.845Z,32.00
2023-03-10T08:34:44.252Z,34.50
2023-03-10T08:37:11.821Z,37.80
2023-03-10T08:39:38.993Z,30.00
2023-03-10T08:42:06.096Z,23.92
2023-03-10T08:44:33.155Z,26.98
2023-03-10T08:47:00.383Z,26.48
2023-03-10T08:49:27.451Z,22.98
2023-03-10T08:52:00.589Z,30.05
2023-03-10T08:54:28.556Z,25.77
2023-03-10T08:56:56.533Z,30.88
2023-03-10T08:59:23.494Z,26.20
2023-03-10T09:01:50.660Z,32.72
2023-03-10T09:04:17.927Z,28.67
2023-03-10T09:06:44.893Z,29.98
2023-03-10T09:09:12.509Z,33.17
2023-03-10T09:11:40.961Z,27.77
2023-03-10T09:14:10.565Z,31.23
2023-03-10T09:16:40.440Z,30.50
2023-03-10T09:19:07.763Z,32.10
2023-03-10T09:21:34.857Z,31.20
2023-03-10T09:24:04.638Z,31.17
2023-03-10T09:26:32.034Z,30.58
2023-03-10T09:29:01.080Z,24.70
2023-03-10T09:31:36.782Z,22.73
2023-03-10T09:34:04.609Z,28.80
2023-03-10T09:36:32.949Z,26.75
2023-03-10T09:39:00.811Z,25.73
2023-03-10T09:41:51.808Z,22.98
2023-03-10T09:44:43.554Z,26.27
2023-03-10T10:00:11.082Z,20.05
2023-03-10T16:25:37.129Z,33.88
2023-03-10T16:28:04.358Z,26.98
2023-03-10T16:30:31.347Z,35.15
2023-03-10T16:33:01.594Z,30.70
2023-03-10T16:35:30.154Z,33.15
2023-03-10T16:38:00.515Z,33.75
2023-03-10T16:40:27.493Z,30.30
2023-03-10T16:42:54.396Z,33.35
2023-03-10T16:45:21.456Z,36.45
2023-03-10T16:47:49.274Z,36.63
2023-03-10T16:50:16.662Z,35.15
2023-03-10T16:52:44.118Z,37.58
2023-03-10T16:55:18.883Z,34.58
2023-03-10T16:57:46.210Z,40.95
2023-03-10T17:00:15.042Z,33.85
2023-03-10T17:02:43.019Z,40.40
2023-03-10T17:05:10.352Z,38.65
2023-03-10T17:07:53.352Z,36.60
2023-03-10T17:10:22.478Z,35.28
2023-03-10T17:12:49.497Z,35.90
2023-03-10T17:15:16.527Z,35.45
2023-03-10T17:17:43.502Z,33.47
2023-03-10T17:20:10.987Z,34.42
2023-03-10T17:22:39.073Z,35.63
2023-03-10T17:25:06.579Z,36.90
2023-03-10T17:27:33.501Z,33.58
2023-03-10T17:30:00.664Z,38.25
2023-03-10T17:32:28.423Z,34.90
2023-03-10T17:34:55.530Z,41.40
2023-03-10T17:37:22.611Z,35.80
2023-03-10T17:39:49.646Z,40.95
2023-03-10T17:42:16.728Z,36.83
2023-03-10T17:44:43.667Z,39.90
2023-03-10T17:47:12.311Z,33.90
2023-03-10T17:49:41.047Z,34.25
2023-03-10T17:52:08.302Z,43.50
2023-03-10T17:54:35.358Z,33.38
2023-03-10T17:57:02.445Z,39.63
2023-03-10T17:59:31.254Z,41.75
2023-03-10T18:01:58.931Z,45.42
2023-03-10T18:04:29.951Z,41.13
2023-03-10T18:06:57.439Z,41.03
2023-03-10T18:09:24.342Z,54.30
2023-03-10T18:11:51.308Z,50.78
2023-03-10T18:14:18.289Z,48.55
2023-03-10T18:16:45.268Z,39.90
2023-03-10T18:19:12.601Z,46.63
2023-03-10T18:21:39.757Z,43.83
2023-03-10T18:24:08.351Z,43.13
2023-03-10T18:26:37.001Z,45.38
2023-03-10T18:29:05.036Z,55.17
2023-03-10T18:31:34.479Z,44.30
2023-03-10T18:34:01.972Z,55.17
2023-03-10T18:36:30.087Z,46.08
2023-03-10T18:38:57.621Z,43.25
2023-03-10T18:41:27.435Z,42.05
2023-03-10T18:43:54.377Z,48.15
2023-03-10T18:46:22.505Z,42.90
2023-03-10T18:48:55.431Z,47.55
2023-03-10T18:51:27.802Z,46.08
2023-03-10T18:53:55.322Z,42.05
2023-03-10T18:56:25.762Z,44.72
2023-03-10T18:58:53.682Z,39.80
2023-03-10T19:01:20.756Z,48.30
2023-03-10T19:03:47.762Z,58.22
2023-03-10T19:06:14.798Z,52.75
2023-03-10T19:08:41.927Z,43.50
2023-03-10T19:11:09.274Z,45.65
2023-03-10T19:13:40.421Z,44.33
2023-03-10T19:16:09.829Z,38.00
2023-03-10T19:18:37.323Z,48.45
2023-03-10T19:21:04.689Z,35.35
2023-03-10T19:23:33.979Z,36.28
2023-03-10T19:26:01.063Z,39.33
2023-03-10T19:28:38.327Z,40.38
2023-03-10T19:31:10.683Z,33.35
2023-03-10T19:33:39.851Z,33.67
2023-03-10T19:36:11.806Z,42.10
2023-03-10T19:38:39.650Z,34.83
2023-03-10T19:41:11.150Z,39.72
2023-03-10T19:43:38.161Z,37.35
2023-03-10T19:46:07.985Z,31.15
2023-03-10T19:48:35.692Z,33.55
2023-03-10T19:51:05.601Z,36.10
2023-03-10T19:53:33.718Z,44.90
2023-03-10T19:56:07.857Z,33.35
2023-03-10T19:58:35.004Z,37.83
2023-03-10T20:01:02.274Z,33.55
2023-03-10T20:03:31.905Z,32.65
2023-03-10T20:05:59.079Z,30.02
2023-03-10T20:08:26.252Z,30.17
2023-03-10T20:10:53.324Z,26.83
2023-03-10T20:13:21.326Z,33.65
2023-03-10T20:15:48.750Z,30.63
2023-03-10T20:18:18.588Z,33.15
2023-03-10T20:20:45.796Z,33.55
2023-03-10T20:23:12.919Z,28.95
2023-03-10T20:25:41.310Z,35.33
2023-03-10T20:28:09.332Z,29.05
2023-03-10T20:30:37.498Z,36.50
2023-03-10T20:33:04.542Z,28.50
2023-03-10T20:35:33.737Z,31.00
2023-03-10T20:38:02.073Z,26.10
2023-03-10T20:40:29.508Z,29.95
2023-03-10T20:42:59.745Z,27.70
2023-03-10T20:45:27.362Z,29.83
2023-03-10T20:47:54.970Z,27.33
2023-03-10T20:50:22.005Z,27.67
2023-03-10T20:52:49.875Z,21.83
2023-03-10T20:55:23.371Z,18.25
2023-03-10T20:57:52.278Z,19.42
2023-03-10T21:00:22.305Z,20.13
2023-03-10T21:02:52.653Z,19.90
2023-03-10T21:05:21.074Z,20.52
2023-03-10T21:07:48.224Z,20.52
2023-03-10T21:10:17.038Z,21.00
2023-03-10T21:12:44.696Z,23.73
2023-03-10T21:15:13.997Z,28.90
2023-03-10T21:17:41.534Z,21.25
2023-03-10T21:20:09.192Z,20.25
2023-03-10T21:22:38.377Z,23.88
2023-03-10T21:25:07.940Z,31.20
2023-03-10T21:27:36.381Z,19.75
2023-03-10T21:30:07.978Z,21.65
2023-03-10T21:32:35.123Z,22.45
2023-03-10T21:35:02.551Z,25.05
2023-03-10T21:37:29.969Z,18.92
2023-03-10T21:39:58.011Z,22.70
2023-03-10T21:42:25.003Z,23.02
2023-03-10T21:44:54.546Z,19.98
2023-03-10T21:47:21.537Z,15.00
2023-03-10T21:49:48.552Z,16.23
2023-03-10T21:52:15.559Z,14.48
2023-03-10T21:54:43.506Z,17.38
2023-03-10T21:57:10.716Z,23.05
2023-03-10T21:59:38.630Z,22.38
2023-03-10T22:02:05.694Z,26.67
2023-03-10T22:04:33.121Z,23.20
2023-03-10T22:07:00.783Z,20.13
2023-03-10T22:09:28.485Z,17.27
2023-03-10T22:11:55.502Z,18.13
2023-03-10T22:14:24.430Z,17.83
2023-03-10T22:16:51.871Z,17.70
2023-03-10T22:19:19.719Z,17.00
2023-03-10T22:21:46.601Z,17.50
2023-03-10T22:24:13.981Z,14.38
2023-03-10T22:26:40.977Z,18.00
2023-03-10T22:29:07.951Z,19.27
2023-03-10T22:31:35.277Z,20.05
2023-03-10T22:34:02.201Z,14.13
2023-03-10T22:36:29.125Z,13.52
2023-03-10T22:38:56.158Z,14.27
2023-03-10T22:41:23.286Z,14.68
2023-03-10T22:43:51.731Z,13.27
2023-03-10T22:46:18.755Z,11.50
2023-03-10T22:48:45.941Z,14.50
2023-03-10T22:51:16.746Z,14.38
2023-03-10T22:53:47.068Z,19.15
2023-03-10T22:56:14.101Z,18.33
2023-03-10T22:58:41.192Z,20.30
2023-03-10T23:01:08.359Z,18.70
2023-03-10T23:03:36.040Z,21.17
2023-03-10T23:06:06.630Z,19.30
2023-03-10T23:08:37.587Z,14.85
2023-03-10T23:11:12.901Z,14.32
2023-03-10T23:13:40.255Z,14.38
2023-03-10T23:16:07.966Z,15.40
2023-03-10T23:18:35.021Z,13.77
2023-03-10T23:21:02.717Z,16.27
2023-03-10T23:23:29.728Z,14.35
2023-03-10T23:25:56.766Z,13.68
2023-03-10T23:28:24.023Z,16.73
2023-03-10T23:30:51.341Z,11.40
2023-03-10T23:33:21.933Z,16.15
2023-03-10T23:35:55.279Z,14.00
2023-03-10T23:38:23.985Z,11.35
2023-03-10T23:40:51.738Z,10.88
2023-03-10T23:43:18.724Z,8.55
2023-03-10T23:45:46.034Z,10.13
2023-03-10T23:48:16.172Z,11.65
2023-03-10T23:50:44.751Z,19.15
2023-03-10T23:53:13.577Z,12.38
2023-03-10T23:55:43.194Z,16.25
2023-03-10T23:58:11.036Z,15.48
